createdAt,value
2019-01-02T00:01:18.573Z,102003.61
2019-01-02T00:03:46.894Z,101999.50
2019-01-02T00:06:15.185Z,102003.06
2019-01-02T00:08:43.670Z,102015.69
2019-01-02T00:11:11.960Z,102009.91
2019-01-02T00:13:42.005Z,102007.73
2019-01-02T00:16:10.296Z,102014.30
2019-01-02T00:18:40.327Z,102020.90
2019-01-02T00:21:08.638Z,102025.02
2019-01-02T00:23:38.660Z,102038.73
2019-01-02T00:26:06.948Z,102042.56
2019-01-02T00:28:35.271Z,102053.81
2019-01-02T00:31:05.310Z,102050.81
2019-01-02T00:33:33.608Z,102052.42
2019-01-02T00:36:03.625Z,102058.73
2019-01-02T00:38:31.926Z,102064.78
2019-01-02T00:41:01.944Z,102069.72
2019-01-02T00:43:30.266Z,102090.55
2019-01-02T00:46:00.308Z,102077.94
2019-01-02T00:48:28.611Z,102089.71
2019-01-02T00:50:58.630Z,102086.15
2019-01-02T00:53:46.381Z,102080.93
2019-01-02T00:56:14.672Z,102091.90
2019-01-02T00:58:42.974Z,102092.16
2019-01-02T01:01:11.265Z,102091.30
2019-01-02T01:03:39.564Z,102102.80
2019-01-02T01:06:07.875Z,102112.94
2019-01-02T01:08:36.173Z,102115.68
2019-01-02T01:14:20.416Z,102118.44
2019-01-02T01:16:48.702Z,102125.00
2019-01-02T01:19:18.733Z,102131.31
2019-01-02T01:21:47.042Z,102129.66
2019-01-02T01:24:15.336Z,102136.20
2019-01-02T01:26:43.633Z,102146.07
2019-01-02T01:29:11.935Z,102155.11
2019-01-02T01:31:41.949Z,102159.52
2019-01-02T01:34:10.265Z,102156.47
2019-01-02T01:36:38.549Z,102166.91
2019-01-02T01:39:47.140Z,102166.88
2019-01-02T01:42:15.730Z,102178.39
2019-01-02T01:44:44.027Z,102182.50
2019-01-02T01:47:14.038Z,102187.69
2019-01-02T01:49:42.339Z,102196.75
2019-01-02T01:52:10.644Z,102200.05
2019-01-02T01:54:40.665Z,102201.94
2019-01-02T01:57:08.955Z,102206.61
2019-01-02T01:59:37.254Z,102207.98
2019-01-02T02:02:05.542Z,102214.00
2019-01-02T02:04:33.860Z,102206.86
2019-01-02T02:07:03.878Z,102210.70
2019-01-02T02:09:51.544Z,102208.80
2019-01-02T02:12:19.849Z,102216.45
2019-01-02T02:14:49.872Z,102224.11
2019-01-02T02:17:18.174Z,102217.26
2019-01-02T02:19:46.453Z,102224.95
2019-01-02T02:22:16.465Z,102227.71
2019-01-02T02:25:24.953Z,102235.93
2019-01-02T02:27:53.262Z,102241.39
2019-01-02T02:30:23.279Z,102247.14
2019-01-02T02:33:10.707Z,102245.47
2019-01-02T02:35:39.293Z,102252.56
2019-01-02T02:38:09.307Z,102256.14
2019-01-02T02:40:37.611Z,102269.34
2019-01-02T02:43:05.889Z,102267.10
2019-01-02T02:45:34.208Z,102268.47
2019-01-02T02:50:53.096Z,102269.81
2019-01-02T02:53:23.109Z,102268.45
2019-01-02T02:55:53.136Z,102270.92
2019-01-02T02:58:23.171Z,102272.56
2019-01-02T03:01:33.311Z,102264.06
2019-01-02T03:04:03.325Z,102269.81
2019-01-02T03:06:33.351Z,102270.63
2019-01-02T03:11:41.668Z,102277.72
2019-01-02T03:14:09.946Z,102286.77
2019-01-02T03:16:39.970Z,102285.41
2019-01-02T03:19:10.005Z,102283.50
2019-01-02T03:21:40.024Z,102285.41
2019-01-02T03:24:10.035Z,102295.83
2019-01-02T03:26:38.328Z,102295.56
2019-01-02T03:29:06.633Z,102302.11
2019-01-02T03:31:36.642Z,102297.44
2019-01-02T03:34:06.672Z,102296.88
2019-01-02T03:36:34.965Z,102304.02
2019-01-02T03:41:42.409Z,102310.04
2019-01-02T03:44:10.717Z,102315.25
2019-01-02T03:46:39.026Z,102314.95
2019-01-02T03:49:07.330Z,102310.55
2019-01-02T03:51:35.617Z,102324.78
2019-01-02T03:54:03.912Z,102330.26
2019-01-02T03:56:32.219Z,102329.70
2019-01-02T03:59:19.883Z,102329.99
2019-01-02T04:01:48.201Z,102326.16
2019-01-02T04:04:16.506Z,102325.31
2019-01-02T04:06:44.798Z,102340.95
2019-01-02T04:09:13.091Z,102330.50
2019-01-02T04:12:00.503Z,102337.91
2019-01-02T04:14:28.784Z,102334.91
2019-01-02T04:16:57.070Z,102343.13
2019-01-02T04:19:25.392Z,102344.73
2019-01-02T04:21:53.703Z,102355.42
2019-01-02T04:24:22.008Z,102352.69
2019-01-02T04:27:09.726Z,102359.80
2019-01-02T04:29:38.050Z,102360.37
2019-01-02T04:32:06.334Z,102371.33
2019-01-02T04:34:34.637Z,102368.28
2019-01-02T04:37:02.923Z,102380.88
2019-01-02T04:39:31.217Z,102379.21
2019-01-02T04:41:59.521Z,102380.88
2019-01-02T04:44:27.840Z,102387.20
2019-01-02T04:46:56.125Z,102383.89
2019-01-02T04:49:43.786Z,102389.33
2019-01-02T04:52:12.094Z,102392.08
2019-01-02T04:54:40.395Z,102400.56
2019-01-02T04:57:08.680Z,102399.49
2019-01-02T04:59:56.357Z,102410.98
2019-01-02T05:02:24.652Z,102420.58
2019-01-02T05:04:52.953Z,102425.48
2019-01-02T05:07:21.235Z,102419.16
2019-01-02T05:09:49.536Z,102422.52
2019-01-02T05:12:17.851Z,102421.45
2019-01-02T05:14:46.153Z,102422.24
2019-01-02T05:17:14.467Z,102430.69
2019-01-02T05:19:42.759Z,102432.06
2019-01-02T05:22:11.048Z,102432.86
2019-01-02T05:24:39.354Z,102443.81
2019-01-02T05:27:07.663Z,102442.68
2019-01-02T05:29:35.961Z,102444.62
2019-01-02T05:32:04.249Z,102440.78
2019-01-02T05:34:32.565Z,102449.52
2019-01-02T05:37:00.873Z,102458.81
2019-01-02T05:39:29.175Z,102461.23
2019-01-02T05:41:57.459Z,102459.56
2019-01-02T05:44:25.759Z,102460.41
2019-01-02T05:46:54.039Z,102462.88
2019-01-02T05:49:41.700Z,102470.21
2019-01-02T05:52:09.990Z,102481.74
2019-01-02T05:54:38.288Z,102480.10
2019-01-02T05:57:06.569Z,102490.49
2019-01-02T05:59:34.892Z,102489.38
2019-01-02T06:04:50.439Z,102509.88
2019-01-02T06:07:18.749Z,102509.53
2019-01-02T06:12:21.462Z,102529.48
2019-01-02T06:14:49.777Z,102531.64
2019-01-02T06:17:18.085Z,102538.45
2019-01-02T06:19:46.368Z,102538.19
2019-01-02T06:22:14.670Z,102552.18
2019-01-02T06:24:42.958Z,102560.61
2019-01-02T06:27:11.254Z,102555.66
2019-01-02T06:29:39.540Z,102557.56
2019-01-02T06:32:07.869Z,102565.50
2019-01-02T06:34:55.307Z,102571.20
2019-01-02T06:37:23.593Z,102573.72
2019-01-02T06:39:51.878Z,102571.78
2019-01-02T06:42:20.172Z,102582.16
2019-01-02T06:44:48.479Z,102590.38
2019-01-02T06:47:36.143Z,102596.43
2019-01-02T06:50:44.558Z,102595.05
2019-01-02T06:53:12.849Z,102608.69
2019-01-02T06:55:41.153Z,102614.85
2019-01-02T06:58:09.434Z,102629.86
2019-01-02T07:00:37.744Z,102640.53
2019-01-02T07:03:06.038Z,102641.59
2019-01-02T07:05:34.339Z,102649.79
2019-01-02T07:08:02.651Z,102652.95
2019-01-02T07:10:50.062Z,102659.72
2019-01-02T07:13:18.366Z,102667.63
2019-01-02T07:15:46.659Z,102675.25
2019-01-02T07:18:14.946Z,102676.03
2019-01-02T07:20:43.254Z,102678.19
2019-01-02T07:23:11.557Z,102688.55
2019-01-02T07:25:39.859Z,102691.48
2019-01-02T07:28:08.159Z,102692.85
2019-01-02T07:30:36.445Z,102706.53
2019-01-02T07:33:44.949Z,102705.75
2019-01-02T07:36:52.044Z,102711.80
2019-01-02T07:43:12.671Z,102716.03
2019-01-02T07:55:21.868Z,102753.23
2019-01-02T07:58:30.304Z,102757.58
2019-01-02T08:04:51.368Z,102762.77
2019-01-02T08:07:58.495Z,102774.24
2019-01-02T08:11:05.574Z,102773.22
2019-01-02T08:14:12.678Z,102781.17
2019-01-02T08:26:35.080Z,102789.97
2019-01-02T08:29:42.179Z,102800.10
2019-01-02T08:32:49.278Z,102811.33
2019-01-02T08:35:56.367Z,102817.70
2019-01-02T08:39:03.543Z,102825.12
2019-01-02T08:42:10.623Z,102831.09
2019-01-02T08:45:17.729Z,102833.84
2019-01-02T08:51:38.593Z,102836.85
2019-01-02T08:54:45.681Z,102844.53
2019-01-02T09:01:06.845Z,102861.63
2019-01-02T09:04:15.260Z,102861.53
2019-01-02T09:13:24.049Z,102891.80
2019-01-02T09:16:10.502Z,102897.14
2019-01-02T09:18:44.831Z,102901.83
2019-01-02T09:21:53.301Z,102906.89
2019-01-02T09:25:00.399Z,102907.28
2019-01-02T09:34:08.894Z,102922.78
2019-01-02T09:37:16.057Z,102931.53
2019-01-02T09:43:24.570Z,102934.79
2019-01-02T09:46:31.898Z,102945.13
2019-01-02T09:55:53.701Z,102956.47
2019-01-02T10:08:03.438Z,102970.04
2019-01-02T10:11:11.846Z,102976.41
2019-01-02T10:14:18.931Z,102970.13
2019-01-02T10:17:27.351Z,102977.47
2019-01-02T10:26:49.484Z,102981.86
2019-01-02T10:29:56.580Z,102984.42
2019-01-02T10:33:05.065Z,102982.70
2019-01-02T10:42:27.083Z,102998.89
2019-01-02T10:45:34.189Z,103005.39
2019-01-02T10:48:42.691Z,103006.55
2019-01-02T10:51:49.780Z,103005.48
2019-01-02T10:54:58.209Z,103012.63
2019-01-02T10:58:05.298Z,103010.67
2019-01-02T11:01:12.400Z,103020.37
2019-01-02T11:04:20.874Z,103023.11
2019-01-02T11:07:28.010Z,103020.37
2019-01-02T11:13:36.450Z,103027.88
2019-01-02T11:16:43.536Z,103028.40
2019-01-02T11:19:50.638Z,103020.00
2019-01-02T11:25:58.566Z,103042.29
2019-01-02T11:29:07.094Z,103040.97
2019-01-02T11:47:29.102Z,103052.06
2019-01-02T11:49:57.299Z,103050.36
2019-01-02T11:52:25.485Z,103061.45
2019-01-02T11:54:53.686Z,103057.73
2019-01-02T11:57:21.865Z,103059.42
2019-01-02T11:59:50.065Z,103059.21
2019-01-02T12:02:18.249Z,103071.94
2019-01-02T12:04:46.452Z,103061.36
2019-01-02T12:07:35.011Z,103065.03
2019-01-02T12:13:04.314Z,103064.02
2019-01-02T12:15:32.532Z,103062.42
2019-01-02T12:18:00.702Z,103062.23
2019-01-02T12:20:28.898Z,103059.02
2019-01-02T12:22:57.085Z,103066.75
2019-01-02T12:25:25.279Z,103062.89
2019-01-02T12:27:53.460Z,103070.83
2019-01-02T12:30:21.654Z,103077.97
2019-01-02T12:32:49.842Z,103073.84
2019-01-02T12:35:18.040Z,103078.50
2019-01-02T12:37:46.221Z,103076.52
2019-01-02T12:40:14.417Z,103078.38
2019-01-02T12:42:42.607Z,103087.02
2019-01-02T12:45:10.808Z,103081.03
2019-01-02T12:47:39.004Z,103083.52
2019-01-02T12:50:47.314Z,103084.05
2019-01-02T12:53:15.498Z,103081.83
2019-01-02T12:55:43.697Z,103087.16
2019-01-02T12:58:11.874Z,103100.60
2019-01-02T13:01:20.177Z,103091.20
2019-01-02T13:04:27.155Z,103100.50
2019-01-02T13:07:34.158Z,103106.48
2019-01-02T13:16:43.570Z,103121.61
2019-01-02T13:22:52.184Z,103128.88
2019-01-02T13:29:00.856Z,103133.56
2019-01-02T13:32:09.420Z,103140.48
2019-01-02T13:38:30.750Z,103144.43
2019-01-02T13:41:39.357Z,103147.69
2019-01-02T13:48:00.184Z,103154.63
2019-01-02T13:53:29.197Z,103150.80
2019-01-02T13:55:57.403Z,103162.81
2019-01-02T13:58:25.698Z,103169.37
2019-01-02T14:00:53.920Z,103168.25
2019-01-02T14:03:22.150Z,103175.84
2019-01-02T14:05:50.344Z,103181.03
2019-01-02T14:08:18.578Z,103169.42
2019-01-02T14:10:46.782Z,103177.79
2019-01-02T14:13:15.007Z,103177.39
2019-01-02T14:15:43.205Z,103176.17
2019-01-02T14:18:11.489Z,103186.37
2019-01-02T14:20:39.696Z,103183.09
2019-01-02T14:23:07.948Z,103196.35
2019-01-02T14:25:36.202Z,103192.19
2019-01-02T14:28:04.410Z,103184.76
2019-01-02T14:30:32.691Z,103185.64
2019-01-02T14:33:00.884Z,103191.83
2019-01-02T14:35:29.076Z,103195.84
2019-01-02T14:37:57.270Z,103198.44
2019-01-02T14:40:25.454Z,103204.62
2019-01-02T14:42:53.650Z,103203.58
2019-01-02T14:45:21.835Z,103203.18
2019-01-02T14:47:50.013Z,103211.30
2019-01-02T14:50:18.210Z,103217.28
2019-01-02T14:52:46.394Z,103222.36
2019-01-02T14:55:34.018Z,103216.28
2019-01-02T14:58:02.198Z,103223.54
2019-01-02T15:00:30.393Z,103221.83
2019-01-02T15:02:58.580Z,103228.62
2019-01-02T15:05:26.778Z,103223.88
2019-01-02T15:07:54.961Z,103226.20
2019-01-02T15:10:23.157Z,103232.66
2019-01-02T15:12:51.344Z,103236.31
2019-01-02T15:15:19.537Z,103236.19
2019-01-02T15:17:47.718Z,103240.65
2019-01-02T15:20:15.913Z,103244.48
2019-01-02T15:22:44.201Z,103249.40
2019-01-02T15:25:12.370Z,103246.73
2019-01-02T15:27:40.554Z,103251.08
2019-01-02T15:30:48.864Z,103257.63
2019-01-02T15:33:17.052Z,103263.66
2019-01-02T15:35:48.943Z,103267.17
2019-01-02T15:38:15.149Z,103262.40
2019-01-02T15:40:43.357Z,103263.45
2019-01-02T15:43:11.529Z,103267.81
2019-01-02T15:45:39.723Z,103269.11
2019-01-02T15:48:07.907Z,103278.88
2019-01-02T15:50:36.106Z,103273.70
2019-01-02T15:53:04.284Z,103281.78
2019-01-02T15:55:32.472Z,103280.83
2019-01-02T15:58:00.662Z,103281.59
2019-01-02T16:00:28.853Z,103284.27
2019-01-02T16:02:57.034Z,103285.27
2019-01-02T16:05:25.230Z,103284.98
2019-01-02T16:07:53.411Z,103286.14
2019-01-02T16:10:21.591Z,103290.89
2019-01-02T16:12:49.789Z,103290.14
2019-01-02T16:15:17.978Z,103287.80
2019-01-02T16:17:46.173Z,103292.36
2019-01-02T16:20:14.367Z,103295.86
2019-01-02T16:22:42.554Z,103290.95
2019-01-02T16:25:10.736Z,103293.00
2019-01-02T16:27:38.939Z,103306.45
2019-01-02T16:33:20.856Z,103307.09
2019-01-02T16:35:49.042Z,103307.53
2019-01-02T16:38:17.241Z,103310.59
2019-01-02T16:40:45.426Z,103311.03
2019-01-02T16:43:13.622Z,103318.12
2019-01-02T16:45:41.803Z,103317.75
2019-01-02T16:48:50.114Z,103323.66
2019-01-02T16:51:18.328Z,103324.66
2019-01-02T16:53:46.510Z,103323.45
2019-01-02T16:56:14.695Z,103333.27
2019-01-02T16:58:42.888Z,103329.16
2019-01-02T17:01:11.072Z,103340.87
2019-01-02T17:03:39.266Z,103335.23
2019-01-02T17:06:07.458Z,103333.86
2019-01-02T17:08:35.649Z,103339.25
2019-01-02T17:11:03.840Z,103334.86
2019-01-02T17:13:32.037Z,103326.65
2019-01-02T17:16:00.255Z,103337.83
2019-01-02T17:18:28.423Z,103334.25
2019-01-02T17:20:56.609Z,103335.85
2019-01-02T17:23:24.796Z,103342.98
2019-01-02T17:25:52.980Z,103347.69
2019-01-02T17:28:21.174Z,103344.87
2019-01-02T17:30:49.353Z,103341.00
2019-01-02T17:33:17.556Z,103347.32
2019-01-02T17:35:45.747Z,103346.10
2019-01-02T17:38:13.935Z,103348.52
2019-01-02T17:40:42.123Z,103348.67
2019-01-02T17:43:10.322Z,103354.61
2019-01-02T17:45:38.504Z,103347.69
2019-01-02T17:48:06.698Z,103355.05
2019-01-02T17:50:34.877Z,103354.23
2019-01-02T17:53:03.079Z,103355.89
2019-01-02T17:55:31.266Z,103364.41
2019-01-02T17:57:59.467Z,103355.05
2019-01-02T18:00:27.655Z,103362.12
2019-01-02T18:02:55.853Z,103368.58
2019-01-02T18:05:24.100Z,103365.37
2019-01-02T18:07:52.302Z,103362.78
2019-01-02T18:10:20.486Z,103365.95
2019-01-02T18:12:48.684Z,103360.72
2019-01-02T18:15:16.868Z,103367.32
2019-01-02T18:17:45.068Z,103368.69
2019-01-02T18:20:13.250Z,103368.02
2019-01-02T18:22:41.519Z,103368.97
2019-01-02T18:25:09.635Z,103368.16
2019-01-02T18:27:37.815Z,103371.09
2019-01-02T18:30:46.123Z,103365.02
2019-01-02T18:33:14.319Z,103371.80
2019-01-02T18:35:42.498Z,103378.07
2019-01-02T18:38:10.693Z,103377.55
2019-01-02T18:40:38.870Z,103381.88
2019-01-02T18:43:07.073Z,103387.88
2019-01-02T18:45:35.256Z,103388.95
2019-01-02T18:48:03.451Z,103393.24
2019-01-02T18:50:31.633Z,103396.21
2019-01-02T18:52:59.813Z,103401.06
2019-01-02T18:55:28.005Z,103402.66
2019-01-02T18:57:56.186Z,103399.92
2019-01-02T19:00:24.383Z,103404.78
2019-01-02T19:02:52.566Z,103400.91
2019-01-02T19:05:20.792Z,103399.67
2019-01-02T19:07:48.935Z,103400.43
2019-01-02T19:10:17.130Z,103401.99
2019-01-02T19:12:45.314Z,103395.63
2019-01-02T19:15:13.525Z,103397.19
2019-01-02T19:17:41.711Z,103396.66
2019-01-02T19:20:09.914Z,103400.99
2019-01-02T19:22:38.104Z,103401.55
2019-01-02T19:25:46.472Z,103398.53
2019-01-02T19:28:14.652Z,103406.63
2019-01-02T19:31:22.960Z,103411.80
2019-01-02T19:33:51.163Z,103406.24
2019-01-02T19:36:19.349Z,103411.94
2019-01-02T19:38:47.549Z,103410.47
2019-01-02T19:41:15.744Z,103414.24
2019-01-02T19:43:43.931Z,103411.45
2019-01-02T19:46:12.131Z,103413.00
2019-01-02T19:48:40.324Z,103414.50
2019-01-02T19:51:08.516Z,103416.09
2019-01-02T19:53:36.698Z,103415.80
2019-01-02T19:56:04.894Z,103414.44
2019-01-02T19:58:33.115Z,103417.69
2019-01-02T20:01:01.313Z,103426.63
2019-01-02T20:03:29.500Z,103420.32
2019-01-02T20:05:57.697Z,103421.91
2019-01-02T20:08:25.881Z,103420.77
2019-01-02T20:10:54.079Z,103422.89
2019-01-02T20:13:22.252Z,103418.17
2019-01-02T20:15:50.445Z,103418.91
2019-01-02T20:18:18.627Z,103421.32
2019-01-02T20:20:46.826Z,103428.05
2019-01-02T20:23:34.430Z,103425.25
2019-01-02T20:26:02.624Z,103430.51
2019-01-02T20:28:30.805Z,103423.80
2019-01-02T20:30:58.998Z,103421.20
2019-01-02T20:33:27.179Z,103419.96
2019-01-02T20:35:55.376Z,103413.88
2019-01-02T20:38:23.563Z,103423.66
2019-01-02T20:40:51.781Z,103423.03
2019-01-02T20:43:19.954Z,103420.72
2019-01-02T20:45:48.152Z,103418.22
2019-01-02T20:51:03.598Z,103414.86
2019-01-02T20:53:31.773Z,103416.23
2019-01-02T20:55:59.971Z,103413.20
2019-01-02T20:58:28.154Z,103410.38
2019-01-02T21:00:56.347Z,103408.61
2019-01-02T21:03:24.544Z,103404.41
2019-01-02T21:05:52.806Z,103399.30
2019-01-02T21:08:20.993Z,103406.24
2019-01-02T21:10:49.198Z,103406.36
2019-01-02T21:13:17.365Z,103405.92
2019-01-02T21:15:45.605Z,103412.97
2019-01-02T21:18:13.790Z,103413.41
2019-01-02T21:20:41.977Z,103416.87
2019-01-02T21:23:10.170Z,103412.98
2019-01-02T21:28:39.328Z,103399.67
2019-01-02T21:31:07.510Z,103408.08
2019-01-02T21:33:35.713Z,103405.64
2019-01-02T21:36:03.896Z,103396.84
2019-01-02T21:38:32.120Z,103393.81
2019-01-02T21:41:00.301Z,103391.83
2019-01-02T21:43:28.503Z,103387.62
2019-01-02T21:45:56.688Z,103397.06
2019-01-02T21:48:24.885Z,103384.17
2019-01-02T21:50:53.062Z,103384.28
2019-01-02T21:53:21.259Z,103391.00
2019-01-02T21:55:49.441Z,103395.53
2019-01-02T21:58:17.630Z,103393.44
2019-01-02T22:00:45.883Z,103393.22
2019-01-02T22:03:14.078Z,103388.42
2019-01-02T22:05:42.263Z,103386.95
2019-01-02T22:08:10.458Z,103388.72
2019-01-02T22:10:38.643Z,103388.64
2019-01-02T22:13:06.839Z,103385.59
2019-01-02T22:15:35.035Z,103376.67
2019-01-02T22:18:03.223Z,103383.19
2019-01-02T22:20:31.405Z,103382.56
2019-01-02T22:22:59.604Z,103378.15
2019-01-02T22:25:27.789Z,103380.25
2019-01-02T22:27:55.985Z,103381.53
2019-01-02T22:30:24.171Z,103386.88
2019-01-02T22:32:52.404Z,103390.33
2019-01-02T22:35:20.593Z,103402.89
2019-01-02T22:37:48.778Z,103399.02
2019-01-02T22:40:16.977Z,103399.75
2019-01-02T22:42:45.163Z,103405.72
2019-01-02T22:45:13.361Z,103402.80
2019-01-02T22:47:41.545Z,103408.65
2019-01-02T22:50:09.744Z,103418.91
2019-01-02T22:52:37.924Z,103420.38
2019-01-02T22:55:06.120Z,103425.75
2019-01-02T22:57:34.313Z,103424.78
2019-01-02T23:00:02.517Z,103427.94
2019-01-02T23:05:38.694Z,103419.95
2019-01-02T23:08:26.025Z,103424.47
2019-01-02T23:11:13.325Z,103421.62
2019-01-02T23:14:00.631Z,103416.91
2019-01-02T23:16:47.932Z,103421.21
2019-01-02T23:19:35.242Z,103432.31
2019-01-02T23:22:22.548Z,103427.78
2019-01-02T23:25:09.853Z,103427.88
2019-01-02T23:27:57.147Z,103435.42
2019-01-02T23:30:44.461Z,103430.06
2019-01-02T23:33:31.758Z,103431.85
2019-01-02T23:36:19.092Z,103440.11
2019-01-02T23:39:06.686Z,103438.73
2019-01-02T23:41:53.994Z,103437.97
2019-01-02T23:47:16.635Z,103430.74
2019-01-02T23:50:03.950Z,103426.55
2019-01-02T23:52:51.246Z,103427.60
2019-01-02T23:55:38.563Z,103434.07
2019-01-02T23:58:25.864Z,103432.41
